Terminal Aerodrome Forecast
Issued by NWS Norman, OK

Home | Current Version | Previous Version | Text Only | Print | Product List | Glossary On
Versions: 1 2 3 4 5 6 7 8 9 10 11 12 13 14 15 16 17 18 19 20 21 22 23 24 25
000
FTUS44 KOUN 272328
TAFSPS
TAF
KSPS 272328Z 2800/2824 17018G25KT P6SM BKN070 BKN100
     FM281100 28008KT P6SM BKN250
     FM282100 12010KT P6SM BKN250=

USA.gov is the U.S. government's official web portal to all federal, state and local government web resources and services.